createdAt,value
2018-08-24T00:00:33.086Z,0
2018-08-24T00:01:33.075Z,0
2018-08-24T00:02:32.822Z,0
2018-08-24T00:03:32.820Z,0
2018-08-24T00:04:32.823Z,0
2018-08-24T00:05:33.074Z,0
2018-08-24T00:06:32.818Z,0
2018-08-24T00:07:32.462Z,0
2018-08-24T00:08:33.315Z,0
2018-08-24T00:09:32.814Z,0
2018-08-24T00:10:33.064Z,0
2018-08-24T00:11:32.553Z,0
2018-08-24T00:12:33.060Z,0
2018-08-24T00:13:32.799Z,0
2018-08-24T00:14:32.801Z,0
2018-08-24T00:15:32.796Z,0
2018-08-24T00:16:32.796Z,0
2018-08-24T00:17:33.052Z,0
2018-08-24T00:18:33.045Z,0
2018-08-24T00:19:32.788Z,0
2018-08-24T00:20:33.038Z,0
2018-08-24T00:21:32.785Z,0
2018-08-24T00:22:32.787Z,0
2018-08-24T00:23:33.042Z,0
2018-08-24T00:24:33.031Z,0
2018-08-24T00:25:33.027Z,0
2018-08-24T00:26:33.024Z,0
2018-08-24T00:27:33.035Z,0
2018-08-24T00:28:32.772Z,0
2018-08-24T00:29:32.516Z,0
2018-08-24T00:30:33.022Z,0
2018-08-24T00:31:32.777Z,0
2018-08-24T00:32:33.019Z,0
2018-08-24T00:33:32.762Z,0
2018-08-24T00:34:33.013Z,0
2018-08-24T00:35:33.009Z,0
2018-08-24T00:36:33.008Z,0
2018-08-24T00:37:33.002Z,0
2018-08-24T00:38:32.998Z,0
2018-08-24T00:39:32.742Z,0
2018-08-24T00:40:32.748Z,0
2018-08-24T00:41:32.995Z,0
2018-08-24T00:42:33.024Z,0
2018-08-24T00:43:32.990Z,0
2018-08-24T00:44:32.992Z,0
2018-08-24T00:45:32.729Z,0
2018-08-24T00:46:32.985Z,0
2018-08-24T00:47:32.727Z,0
2018-08-24T00:48:32.730Z,0
2018-08-24T00:49:32.732Z,0
2018-08-24T00:50:32.971Z,0
2018-08-24T00:51:32.717Z,0
2018-08-24T00:52:32.715Z,0
2018-08-24T00:53:32.715Z,0
2018-08-24T00:54:32.719Z,0
2018-08-24T00:55:33.070Z,0
2018-08-24T00:56:32.457Z,0
2018-08-24T00:57:32.952Z,0
2018-08-24T00:58:32.953Z,0
2018-08-24T00:59:32.699Z,0
2018-08-24T01:00:32.956Z,0
2018-08-24T01:01:32.698Z,0
2018-08-24T01:02:32.942Z,0
2018-08-24T01:03:32.944Z,0
2018-08-24T01:04:32.680Z,0
2018-08-24T01:05:32.941Z,0
2018-08-24T01:06:32.931Z,0
2018-08-24T01:07:32.816Z,0
2018-08-24T01:08:32.929Z,0
2018-08-24T01:09:32.421Z,0
2018-08-24T01:10:33.173Z,0
2018-08-24T01:11:32.665Z,0
2018-08-24T01:12:32.921Z,0
2018-08-24T01:13:32.912Z,0
2018-08-24T01:14:32.911Z,0
2018-08-24T01:15:32.657Z,0
2018-08-24T01:16:32.400Z,0
2018-08-24T01:17:32.903Z,0
2018-08-24T01:18:32.897Z,0
2018-08-24T01:19:32.900Z,0
2018-08-24T01:20:32.895Z,0
2018-08-24T01:21:32.895Z,0
2018-08-24T01:22:32.639Z,0
2018-08-24T01:23:32.885Z,0
2018-08-24T01:24:32.886Z,0
2018-08-24T01:25:32.882Z,0
2018-08-24T01:26:32.887Z,0
2018-08-24T01:27:32.875Z,0
2018-08-24T01:28:32.871Z,0
2018-08-24T01:29:32.623Z,0
2018-08-24T01:30:32.873Z,0
2018-08-24T01:31:32.863Z,0
2018-08-24T01:32:32.868Z,0
2018-08-24T01:33:32.853Z,0
2018-08-24T01:34:32.604Z,0
2018-08-24T01:35:32.350Z,0
2018-08-24T01:36:32.854Z,0
2018-08-24T01:37:32.847Z,0
2018-08-24T01:38:32.596Z,0
2018-08-24T01:39:32.596Z,0
2018-08-24T01:40:32.838Z,0
2018-08-24T01:41:32.586Z,0
2018-08-24T01:42:33.089Z,0
2018-08-24T01:43:32.828Z,0
2018-08-24T01:44:32.330Z,0
2018-08-24T01:45:32.583Z,0
2018-08-24T01:46:32.074Z,0
2018-08-24T01:47:32.821Z,0
2018-08-24T01:48:32.829Z,0
2018-08-24T01:49:32.567Z,0
2018-08-24T01:50:32.810Z,0
2018-08-24T01:51:32.808Z,0
2018-08-24T01:52:32.811Z,0
2018-08-24T01:53:32.556Z,0
2018-08-24T01:54:32.806Z,0
2018-08-24T01:55:32.549Z,0
2018-08-24T01:56:32.541Z,0
2018-08-24T01:57:32.543Z,0
2018-08-24T01:58:32.792Z,0
2018-08-24T01:59:32.327Z,0
2018-08-24T02:00:32.784Z,0
2018-08-24T02:01:32.782Z,0
2018-08-24T02:02:32.783Z,0
2018-08-24T02:03:32.780Z,0
2018-08-24T02:04:32.278Z,0
2018-08-24T02:05:32.773Z,0
2018-08-24T02:06:32.780Z,0
2018-08-24T02:07:32.771Z,0
2018-08-24T02:08:32.516Z,0
2018-08-24T02:09:32.769Z,0
2018-08-24T02:10:32.762Z,0
2018-08-24T02:11:32.254Z,0
2018-08-24T02:12:32.501Z,0
2018-08-24T02:13:32.996Z,0
2018-08-24T02:14:33.125Z,0
2018-08-24T02:15:32.748Z,0
2018-08-24T02:16:32.741Z,0
2018-08-24T02:17:32.763Z,0
2018-08-24T02:18:32.493Z,0
2018-08-24T02:19:32.731Z,0
2018-08-24T02:20:32.480Z,0
2018-08-24T02:21:32.478Z,0
2018-08-24T02:22:32.726Z,0
2018-08-24T02:23:32.722Z,0
2018-08-24T02:24:31.963Z,0
2018-08-24T02:25:32.734Z,0
2018-08-24T02:26:32.468Z,0
2018-08-24T02:27:32.707Z,0
2018-08-24T02:28:32.704Z,0
2018-08-24T02:29:32.456Z,0
2018-08-24T02:30:32.468Z,0
2018-08-24T02:31:32.707Z,0
2018-08-24T02:32:32.711Z,0
2018-08-24T02:33:32.715Z,0
2018-08-24T02:34:32.722Z,0
2018-08-24T02:35:32.692Z,0
2018-08-24T02:36:32.681Z,0
2018-08-24T02:37:32.684Z,0
2018-08-24T02:38:32.677Z,0
2018-08-24T02:39:32.424Z,0
2018-08-24T02:40:32.678Z,0
2018-08-24T02:41:32.415Z,0
2018-08-24T02:42:32.676Z,0
2018-08-24T02:43:32.663Z,0
2018-08-24T02:44:32.940Z,0
2018-08-24T02:45:32.159Z,0
2018-08-24T02:46:32.669Z,0
2018-08-24T02:47:32.649Z,0
2018-08-24T02:48:32.652Z,0
2018-08-24T02:49:32.646Z,0
2018-08-24T02:50:32.654Z,0
2018-08-24T02:51:32.644Z,0
2018-08-24T02:53:32.130Z,0
2018-08-24T02:54:32.675Z,0
2018-08-24T02:55:32.628Z,0
2018-08-24T02:56:32.621Z,0
2018-08-24T02:57:32.630Z,0
2018-08-24T02:58:32.368Z,0
2018-08-24T02:59:32.375Z,0
2018-08-24T03:00:32.363Z,0
2018-08-24T03:01:32.620Z,0
2018-08-24T03:02:32.357Z,0
2018-08-24T03:03:32.605Z,0
2018-08-24T03:04:32.363Z,0
2018-08-24T03:05:33.246Z,0
2018-08-24T03:06:32.605Z,0
2018-08-24T03:07:32.594Z,0
2018-08-24T03:08:32.983Z,0
2018-08-24T03:09:32.331Z,0
2018-08-24T03:10:32.075Z,0
2018-08-24T03:11:32.325Z,0
2018-08-24T03:12:32.579Z,0
2018-08-24T03:13:32.325Z,0
2018-08-24T03:14:32.096Z,0
2018-08-24T03:15:32.814Z,0
2018-08-24T03:16:33.104Z,0
2018-08-24T03:17:32.565Z,0
2018-08-24T03:18:32.558Z,0
2018-08-24T03:19:32.334Z,0
2018-08-24T03:20:32.563Z,0
2018-08-24T03:21:32.297Z,0
2018-08-24T03:22:32.346Z,0
2018-08-24T03:23:32.556Z,0
2018-08-24T03:24:32.546Z,0
2018-08-24T03:25:32.542Z,0
2018-08-24T03:26:32.023Z,0
2018-08-24T03:27:32.271Z,0
2018-08-24T03:28:32.274Z,0
2018-08-24T03:29:32.016Z,0
2018-08-24T03:30:32.547Z,0
2018-08-24T03:31:32.270Z,0
2018-08-24T03:32:32.542Z,0
2018-08-24T03:33:32.004Z,0
2018-08-24T03:34:32.304Z,0
2018-08-24T03:35:32.001Z,0
2018-08-24T03:36:32.503Z,0
2018-08-24T03:37:32.252Z,0
2018-08-24T03:38:32.488Z,0
2018-08-24T03:39:32.493Z,0
2018-08-24T03:40:32.482Z,0
2018-08-24T03:41:32.236Z,0
2018-08-24T03:42:32.479Z,0
2018-08-24T03:43:32.223Z,0
2018-08-24T03:44:32.222Z,0
2018-08-24T03:45:32.470Z,0
2018-08-24T03:46:32.716Z,0
2018-08-24T03:47:32.466Z,0
2018-08-24T03:48:32.468Z,0
2018-08-24T03:49:32.203Z,0
2018-08-24T03:50:32.201Z,0
2018-08-24T03:51:32.460Z,0
2018-08-24T03:52:32.197Z,0
2018-08-24T03:53:32.711Z,0
2018-08-24T03:54:32.198Z,0
2018-08-24T03:55:32.441Z,5
2018-08-24T03:56:32.434Z,5
2018-08-24T03:57:32.428Z,5
2018-08-24T03:58:32.237Z,5
2018-08-24T03:59:32.424Z,5
2018-08-24T04:00:32.420Z,5
2018-08-24T04:01:32.166Z,10
2018-08-24T04:02:32.159Z,10
2018-08-24T04:03:32.437Z,10
2018-08-24T04:04:32.156Z,10
2018-08-24T04:05:32.155Z,10
2018-08-24T04:06:32.152Z,15
2018-08-24T04:07:32.162Z,15
2018-08-24T04:08:32.405Z,15
2018-08-24T04:09:32.458Z,20
2018-08-24T04:10:32.132Z,20
2018-08-24T04:11:31.875Z,20
2018-08-24T04:12:32.378Z,20
2018-08-24T04:13:32.128Z,25
2018-08-24T04:14:31.872Z,25
2018-08-24T04:15:32.372Z,25
2018-08-24T04:16:32.116Z,30
2018-08-24T04:17:32.366Z,30
2018-08-24T04:18:32.363Z,35
2018-08-24T04:19:32.903Z,35
2018-08-24T04:20:32.359Z,35
2018-08-24T04:21:32.351Z,35
2018-08-24T04:22:32.347Z,40
2018-08-24T04:23:32.341Z,40
2018-08-24T04:24:32.339Z,45
2018-08-24T04:25:32.475Z,50
2018-08-24T04:26:32.094Z,50
2018-08-24T04:27:32.328Z,55
2018-08-24T04:28:32.337Z,55
2018-08-24T04:29:32.071Z,55
2018-08-24T04:30:32.326Z,60
2018-08-24T04:31:32.068Z,60
2018-08-24T04:32:32.317Z,65
2018-08-24T04:33:32.060Z,70
2018-08-24T04:34:32.315Z,70
2018-08-24T04:35:32.301Z,75
2018-08-24T04:36:32.301Z,80
2018-08-24T04:37:32.300Z,80
2018-08-24T04:38:32.298Z,85
2018-08-24T04:39:32.293Z,85
2018-08-24T04:40:32.772Z,90
2018-08-24T04:41:32.290Z,100
2018-08-24T04:42:32.295Z,110
2018-08-24T04:43:32.286Z,120
2018-08-24T04:44:32.325Z,125
2018-08-24T04:45:32.340Z,130
2018-08-24T04:46:32.019Z,135
2018-08-24T04:47:31.771Z,135
2018-08-24T04:48:31.762Z,135
2018-08-24T04:49:32.275Z,135
2018-08-24T04:50:32.263Z,130
2018-08-24T04:51:32.825Z,130
2018-08-24T04:52:32.255Z,130
2018-08-24T04:53:32.254Z,130
2018-08-24T04:54:32.305Z,130
2018-08-24T04:55:31.997Z,130
2018-08-24T04:56:31.742Z,130
2018-08-24T04:57:32.246Z,135
2018-08-24T04:58:32.315Z,135
2018-08-24T04:59:32.001Z,135
2018-08-24T05:00:31.745Z,130
2018-08-24T05:01:31.984Z,125
2018-08-24T05:02:32.258Z,125
2018-08-24T05:03:32.238Z,125
2018-08-24T05:04:32.028Z,130
2018-08-24T05:05:32.030Z,135
2018-08-24T05:06:32.225Z,140
2018-08-24T05:07:32.233Z,140
2018-08-24T05:08:32.270Z,130
2018-08-24T05:09:32.300Z,125
2018-08-24T05:10:32.229Z,120
2018-08-24T05:11:32.223Z,120
2018-08-24T05:12:32.218Z,115
2018-08-24T05:13:32.219Z,110
2018-08-24T05:14:31.962Z,105
2018-08-24T05:15:32.216Z,110
2018-08-24T05:16:32.223Z,125
2018-08-24T05:17:31.975Z,130
2018-08-24T05:18:31.956Z,140
2018-08-24T05:19:32.215Z,150
2018-08-24T05:20:32.457Z,155
2018-08-24T05:21:32.795Z,160
2018-08-24T05:22:32.212Z,165
2018-08-24T05:23:32.208Z,170
2018-08-24T05:24:32.239Z,180
2018-08-24T05:25:32.205Z,185
2018-08-24T05:26:31.957Z,190
2018-08-24T05:27:32.208Z,200
2018-08-24T05:28:32.204Z,220
2018-08-24T05:29:32.201Z,240
2018-08-24T05:30:32.197Z,245
2018-08-24T05:31:31.948Z,245
2018-08-24T05:32:32.197Z,250
2018-08-24T05:33:31.947Z,250
2018-08-24T05:34:31.954Z,240
2018-08-24T05:35:32.046Z,235
2018-08-24T05:36:31.940Z,240
2018-08-24T05:37:32.216Z,245
2018-08-24T05:38:31.951Z,235
2018-08-24T05:39:32.208Z,225
2018-08-24T05:40:31.935Z,215
2018-08-24T05:41:32.715Z,225
2018-08-24T05:42:32.183Z,220
2018-08-24T05:43:32.183Z,215
2018-08-24T05:44:32.266Z,230
2018-08-24T05:45:32.241Z,235
2018-08-24T05:46:32.185Z,235
2018-08-24T05:47:32.218Z,245
2018-08-24T05:48:32.187Z,255
2018-08-24T05:49:31.938Z,265
2018-08-24T05:50:31.946Z,280
2018-08-24T05:51:32.439Z,290
2018-08-24T05:52:31.941Z,305
2018-08-24T05:53:31.684Z,305
2018-08-24T05:54:31.929Z,305
2018-08-24T05:55:32.005Z,300
2018-08-24T05:56:32.197Z,300
2018-08-24T05:57:32.234Z,295
2018-08-24T05:58:32.187Z,300
2018-08-24T05:59:31.939Z,300
2018-08-24T06:00:31.685Z,340
2018-08-24T06:01:32.251Z,330
2018-08-24T06:02:32.207Z,285
2018-08-24T06:03:32.190Z,255
2018-08-24T06:04:32.193Z,220
2018-08-24T06:05:31.942Z,200
2018-08-24T06:06:31.942Z,190
2018-08-24T06:07:32.194Z,180
2018-08-24T06:08:31.935Z,165
2018-08-24T06:09:31.684Z,160
2018-08-24T06:10:32.203Z,155
2018-08-24T06:11:32.228Z,160
2018-08-24T06:12:31.941Z,165
2018-08-24T06:13:31.939Z,170
2018-08-24T06:14:31.946Z,170
2018-08-24T06:15:32.201Z,170
2018-08-24T06:16:31.943Z,170
2018-08-24T06:17:32.200Z,165
2018-08-24T06:18:32.200Z,155
2018-08-24T06:19:32.217Z,150
2018-08-24T06:20:32.221Z,145
2018-08-24T06:21:32.243Z,135
2018-08-24T06:22:32.455Z,125
2018-08-24T06:23:32.209Z,120
2018-08-24T06:24:31.849Z,120
2018-08-24T06:25:32.207Z,115
2018-08-24T06:26:32.211Z,110
2018-08-24T06:27:32.218Z,110
2018-08-24T06:28:31.444Z,115
2018-08-24T06:29:31.947Z,115
2018-08-24T06:30:32.201Z,125
2018-08-24T06:31:32.207Z,130
2018-08-24T06:32:31.957Z,130
2018-08-24T06:33:32.236Z,125
2018-08-24T06:34:31.970Z,120
2018-08-24T06:35:32.205Z,120
2018-08-24T06:36:32.250Z,120
2018-08-24T06:37:31.955Z,115
2018-08-24T06:38:31.774Z,120
2018-08-24T06:39:31.951Z,120
2018-08-24T06:40:31.949Z,120
2018-08-24T06:41:31.944Z,120
2018-08-24T06:42:31.954Z,115
2018-08-24T06:43:31.693Z,115
2018-08-24T06:44:31.948Z,110
2018-08-24T06:45:31.944Z,110
2018-08-24T06:46:32.197Z,110
2018-08-24T06:47:32.966Z,110
2018-08-24T06:48:32.206Z,110
2018-08-24T06:49:32.193Z,115
2018-08-24T06:50:32.194Z,120
2018-08-24T06:51:31.942Z,125
2018-08-24T06:52:31.436Z,130
2018-08-24T06:53:33.444Z,140
2018-08-24T06:54:32.202Z,145
2018-08-24T06:55:32.194Z,160
2018-08-24T06:56:31.939Z,175
2018-08-24T06:57:32.193Z,180
2018-08-24T06:58:32.094Z,180
2018-08-24T06:59:32.267Z,180
2018-08-24T07:00:32.188Z,200
2018-08-24T07:01:32.200Z,220
2018-08-24T07:02:32.191Z,240
2018-08-24T07:03:31.685Z,250
2018-08-24T07:04:32.191Z,245
2018-08-24T07:05:32.185Z,245
2018-08-24T07:06:32.196Z,240
2018-08-24T07:07:32.184Z,230
2018-08-24T07:08:32.184Z,215
2018-08-24T07:09:32.185Z,205
2018-08-24T07:10:31.692Z,205
2018-08-24T07:11:31.934Z,210
2018-08-24T07:12:32.004Z,215
2018-08-24T07:13:31.686Z,215
2018-08-24T07:14:31.934Z,210
2018-08-24T07:15:31.928Z,210
2018-08-24T07:16:32.185Z,205
2018-08-24T07:17:32.183Z,195
2018-08-24T07:18:32.187Z,185
2018-08-24T07:19:31.989Z,180
2018-08-24T07:20:31.940Z,190
2018-08-24T07:21:32.189Z,190
2018-08-24T07:22:32.194Z,195
2018-08-24T07:23:32.182Z,195
2018-08-24T07:24:32.458Z,195
2018-08-24T07:25:32.184Z,215
2018-08-24T07:26:32.183Z,230
2018-08-24T07:27:31.927Z,240
2018-08-24T07:28:31.932Z,250
2018-08-24T07:29:31.943Z,245
2018-08-24T07:30:32.178Z,235
2018-08-24T07:31:31.931Z,240
2018-08-24T07:32:31.676Z,250
2018-08-24T07:33:31.928Z,250
2018-08-24T07:34:32.254Z,260
2018-08-24T07:35:31.939Z,265
2018-08-24T07:36:32.175Z,260
2018-08-24T07:37:32.178Z,245
2018-08-24T07:38:31.421Z,225
2018-08-24T07:39:32.179Z,210
2018-08-24T07:40:32.178Z,190
2018-08-24T07:41:32.803Z,170
2018-08-24T07:42:32.183Z,160
2018-08-24T07:43:32.176Z,155
2018-08-24T07:44:31.674Z,155
2018-08-24T07:45:32.180Z,155
2018-08-24T07:46:31.934Z,155
2018-08-24T07:47:32.183Z,155
2018-08-24T07:48:32.179Z,160
2018-08-24T07:49:31.170Z,165
2018-08-24T07:50:32.178Z,190
2018-08-24T07:51:31.954Z,215
2018-08-24T07:52:31.937Z,240
2018-08-24T07:53:32.178Z,245
2018-08-24T07:54:31.926Z,275
2018-08-24T07:55:32.199Z,310
2018-08-24T07:56:32.430Z,335
2018-08-24T07:57:32.182Z,335
2018-08-24T07:58:32.247Z,340
2018-08-24T07:59:31.674Z,345
2018-08-24T08:00:32.183Z,350
2018-08-24T08:01:31.926Z,355
2018-08-24T08:02:32.178Z,365
2018-08-24T08:03:32.189Z,390
2018-08-24T08:04:32.183Z,415
2018-08-24T08:05:32.707Z,445
2018-08-24T08:06:32.178Z,480
2018-08-24T08:07:32.184Z,450
2018-08-24T08:08:32.181Z,440
2018-08-24T08:09:31.929Z,445
2018-08-24T08:10:32.185Z,445
2018-08-24T08:11:32.181Z,450
2018-08-24T08:12:32.065Z,440
2018-08-24T08:13:32.193Z,430
2018-08-24T08:14:31.680Z,425
2018-08-24T08:15:32.188Z,420
2018-08-24T08:16:31.947Z,410
2018-08-24T08:17:31.959Z,410
2018-08-24T08:18:32.519Z,390
2018-08-24T08:19:31.942Z,375
2018-08-24T08:20:31.941Z,370
2018-08-24T08:21:31.951Z,380
2018-08-24T08:22:32.197Z,395
2018-08-24T08:23:32.204Z,400
2018-08-24T08:24:31.748Z,380
2018-08-24T08:25:32.205Z,340
2018-08-24T08:26:31.715Z,280
2018-08-24T08:27:32.203Z,260
2018-08-24T08:28:31.954Z,300
2018-08-24T08:29:31.452Z,365
2018-08-24T08:30:32.224Z,390
2018-08-24T08:31:31.958Z,370
2018-08-24T08:32:31.958Z,385
2018-08-24T08:33:31.459Z,405
2018-08-24T08:34:32.006Z,425
2018-08-24T08:35:32.216Z,485
2018-08-24T08:36:31.968Z,580
2018-08-24T08:37:32.229Z,685
2018-08-24T08:38:31.975Z,770
2018-08-24T08:39:31.977Z,765
2018-08-24T08:40:31.977Z,745
2018-08-24T08:41:31.731Z,740
2018-08-24T08:42:31.989Z,715
2018-08-24T08:43:31.986Z,605
2018-08-24T08:44:31.485Z,495
2018-08-24T08:45:32.841Z,495
2018-08-24T08:46:31.490Z,555
2018-08-24T08:47:31.745Z,550
2018-08-24T08:48:32.006Z,535
2018-08-24T08:49:32.257Z,505
2018-08-24T08:50:32.014Z,470
2018-08-24T08:51:32.013Z,445
2018-08-24T08:52:32.277Z,440
2018-08-24T08:53:32.790Z,490
2018-08-24T08:54:31.780Z,590
2018-08-24T08:55:32.025Z,580
2018-08-24T08:56:32.282Z,595
2018-08-24T08:57:32.042Z,615
2018-08-24T08:58:32.540Z,645
2018-08-24T08:59:32.047Z,625
2018-08-24T09:00:32.047Z,645
2018-08-24T09:01:32.300Z,685
2018-08-24T09:02:32.316Z,660
2018-08-24T09:03:32.315Z,660
2018-08-24T09:04:32.326Z,620
2018-08-24T09:05:32.337Z,655
2018-08-24T09:06:32.960Z,680
2018-08-24T09:07:32.076Z,645
2018-08-24T09:08:32.344Z,655
2018-08-24T09:09:32.086Z,650
2018-08-24T09:10:32.104Z,635
2018-08-24T09:11:32.348Z,570
2018-08-24T09:12:32.387Z,580
2018-08-24T09:13:32.358Z,595
2018-08-24T09:14:31.869Z,585
2018-08-24T09:15:32.372Z,570
2018-08-24T09:16:32.370Z,555
2018-08-24T09:17:32.373Z,535
2018-08-24T09:18:32.766Z,525
2018-08-24T09:19:32.133Z,570
2018-08-24T09:20:32.393Z,610
2018-08-24T09:21:32.395Z,635
2018-08-24T09:22:32.406Z,650
2018-08-24T09:23:32.416Z,645
2018-08-24T09:24:31.905Z,635
2018-08-24T09:25:32.395Z,620
2018-08-24T09:26:34.045Z,615
2018-08-24T09:27:32.425Z,620
2018-08-24T09:28:31.930Z,635
2018-08-24T09:29:32.434Z,645
2018-08-24T09:30:32.187Z,660
2018-08-24T09:31:31.939Z,635
2018-08-24T09:32:32.648Z,630
2018-08-24T09:33:32.461Z,675
2018-08-24T09:34:32.519Z,620
2018-08-24T09:35:32.216Z,600
2018-08-24T09:36:32.476Z,460
2018-08-24T09:37:32.486Z,435
2018-08-24T09:38:31.722Z,520
2018-08-24T09:39:31.981Z,600
2018-08-24T09:40:32.487Z,625
2018-08-24T09:41:31.486Z,595
2018-08-24T09:42:32.243Z,565
2018-08-24T09:43:32.261Z,495
2018-08-24T09:44:32.255Z,520
2018-08-24T09:45:32.514Z,615
2018-08-24T09:46:32.524Z,650
2018-08-24T09:47:32.270Z,660
2018-08-24T09:48:32.529Z,680
2018-08-24T09:49:32.282Z,675
2018-08-24T09:50:32.552Z,635
2018-08-24T09:51:32.046Z,560
2018-08-24T09:52:32.554Z,540
2018-08-24T09:53:32.303Z,550
2018-08-24T09:54:32.559Z,580
2018-08-24T09:55:32.058Z,630
2018-08-24T09:56:32.570Z,665
2018-08-24T09:57:38.839Z,635
2018-08-24T09:58:32.577Z,610
2018-08-24T09:59:32.361Z,560
2018-08-24T10:00:32.840Z,565
2018-08-24T10:01:32.597Z,630
2018-08-24T10:02:34.708Z,695
2018-08-24T10:03:32.615Z,665
2018-08-24T10:04:36.493Z,620
2018-08-24T10:05:32.128Z,560
2018-08-24T10:06:33.255Z,550
2018-08-24T10:07:32.634Z,550
2018-08-24T10:08:32.123Z,550
2018-08-24T10:09:32.131Z,575
2018-08-24T10:10:32.642Z,565
2018-08-24T10:11:33.817Z,530
2018-08-24T10:12:32.177Z,545
2018-08-24T10:13:32.694Z,490
2018-08-24T10:14:32.412Z,390
2018-08-24T10:15:32.416Z,360
2018-08-24T10:16:32.173Z,375
2018-08-24T10:17:32.688Z,400
2018-08-24T10:18:32.178Z,420
2018-08-24T10:19:32.689Z,455
2018-08-24T10:20:32.446Z,525
2018-08-24T10:21:32.748Z,550
2018-08-24T10:22:32.457Z,460
2018-08-24T10:23:32.453Z,340
2018-08-24T10:24:32.467Z,305
2018-08-24T10:25:32.474Z,300
2018-08-24T10:26:33.756Z,265
2018-08-24T10:27:32.729Z,250
2018-08-24T10:28:32.478Z,260
2018-08-24T10:29:33.706Z,245
2018-08-24T10:30:32.235Z,245
2018-08-24T10:31:33.004Z,290
2018-08-24T10:32:32.756Z,350
2018-08-24T10:33:32.503Z,425
2018-08-24T10:34:32.534Z,505
2018-08-24T10:35:32.515Z,485
2018-08-24T10:36:32.518Z,480
2018-08-24T10:37:32.834Z,505
2018-08-24T10:38:32.541Z,485
2018-08-24T10:39:32.281Z,485
2018-08-24T10:40:32.288Z,500
2018-08-24T10:41:32.540Z,475
2018-08-24T10:42:32.561Z,465
2018-08-24T10:43:32.299Z,450
2018-08-24T10:44:32.813Z,435
2018-08-24T10:45:32.826Z,425
2018-08-24T10:46:32.566Z,450
2018-08-24T10:47:32.479Z,470
2018-08-24T10:48:32.830Z,480
2018-08-24T10:49:33.564Z,565
2018-08-24T10:50:32.760Z,565
2018-08-24T10:51:33.030Z,590
2018-08-24T10:52:32.602Z,560
2018-08-24T10:53:32.853Z,590
2018-08-24T10:54:32.389Z,620
2018-08-24T10:55:32.775Z,485
2018-08-24T10:56:32.873Z,375
2018-08-24T10:57:32.984Z,285
2018-08-24T10:58:32.636Z,235
2018-08-24T10:59:32.887Z,260
2018-08-24T11:00:32.896Z,245
2018-08-24T11:01:32.672Z,205
2018-08-24T11:02:32.397Z,195
2018-08-24T11:03:32.920Z,185
2018-08-24T11:04:32.416Z,180
2018-08-24T11:05:33.552Z,200
2018-08-24T11:06:32.675Z,225
2018-08-24T11:07:32.370Z,215
2018-08-24T11:08:32.942Z,180
2018-08-24T11:09:32.689Z,145
2018-08-24T11:10:32.689Z,140
2018-08-24T11:11:32.446Z,130
2018-08-24T11:12:32.446Z,120
2018-08-24T11:13:32.702Z,120
2018-08-24T11:14:32.710Z,140
2018-08-24T11:15:32.707Z,190
2018-08-24T11:16:35.743Z,285
2018-08-24T11:17:32.465Z,350
2018-08-24T11:18:32.973Z,430
2018-08-24T11:19:32.721Z,400
2018-08-24T11:20:32.723Z,400
2018-08-24T11:21:32.736Z,480
2018-08-24T11:22:32.225Z,605
2018-08-24T11:23:32.988Z,660
2018-08-24T11:24:32.735Z,690
2018-08-24T11:25:33.008Z,700
2018-08-24T11:26:32.993Z,725
2018-08-24T11:27:32.511Z,680
2018-08-24T11:28:32.857Z,670
2018-08-24T11:29:33.062Z,700
2018-08-24T11:30:33.004Z,680
2018-08-24T11:31:32.497Z,655
2018-08-24T11:32:32.756Z,610
2018-08-24T11:33:33.010Z,590
2018-08-24T11:34:33.306Z,590
2018-08-24T11:35:33.017Z,605
2018-08-24T11:36:33.508Z,615
2018-08-24T11:37:32.773Z,650
2018-08-24T11:38:33.023Z,675
2018-08-24T11:39:32.267Z,690
2018-08-24T11:40:32.525Z,640
2018-08-24T11:41:32.805Z,620
2018-08-24T11:42:32.526Z,595
2018-08-24T11:43:33.035Z,590
2018-08-24T11:44:32.537Z,595
2018-08-24T11:45:33.047Z,600
2018-08-24T11:46:32.789Z,600
2018-08-24T11:47:32.795Z,590
2018-08-24T11:48:32.799Z,570
2018-08-24T11:49:33.051Z,550
2018-08-24T11:50:32.804Z,525
2018-08-24T11:51:32.807Z,530
2018-08-24T11:52:32.808Z,535
2018-08-24T11:53:33.063Z,525
2018-08-24T11:54:33.495Z,525
2018-08-24T11:55:32.825Z,515
2018-08-24T11:56:32.570Z,505
2018-08-24T11:57:32.576Z,490
2018-08-24T11:58:33.084Z,475
2018-08-24T11:59:32.827Z,440
2018-08-24T12:00:33.094Z,415
2018-08-24T12:01:33.085Z,385
2018-08-24T12:02:32.081Z,380
2018-08-24T12:03:33.090Z,360
2018-08-24T12:04:32.625Z,350
2018-08-24T12:05:32.863Z,350
2018-08-24T12:06:33.107Z,350
2018-08-24T12:07:33.107Z,340
2018-08-24T12:08:33.508Z,320
2018-08-24T12:09:32.908Z,310
2018-08-24T12:10:32.884Z,300
2018-08-24T12:11:32.613Z,290
2018-08-24T12:12:33.337Z,285
2018-08-24T12:13:32.889Z,280
2018-08-24T12:14:32.872Z,290
2018-08-24T12:15:32.623Z,305
2018-08-24T12:16:32.369Z,315
2018-08-24T12:17:32.890Z,320
2018-08-24T12:18:32.926Z,320
2018-08-24T12:19:32.378Z,310
2018-08-24T12:20:33.136Z,300
2018-08-24T12:21:33.223Z,290
2018-08-24T12:22:33.141Z,285
2018-08-24T12:23:33.142Z,290
2018-08-24T12:24:33.838Z,305
2018-08-24T12:25:32.654Z,315
2018-08-24T12:26:32.944Z,320
2018-08-24T12:27:32.899Z,320
2018-08-24T12:28:33.288Z,325
2018-08-24T12:29:32.903Z,325
2018-08-24T12:30:32.910Z,320
2018-08-24T12:31:33.154Z,320
2018-08-24T12:32:32.913Z,325
2018-08-24T12:33:32.916Z,330
2018-08-24T12:34:32.919Z,340
2018-08-24T12:35:32.921Z,340
2018-08-24T12:36:33.454Z,330
2018-08-24T12:37:32.410Z,325
2018-08-24T12:38:33.181Z,315
2018-08-24T12:39:32.669Z,315
2018-08-24T12:40:32.917Z,320
2018-08-24T12:41:33.280Z,330
2018-08-24T12:42:32.924Z,320
2018-08-24T12:43:33.574Z,315
2018-08-24T12:44:33.181Z,310
2018-08-24T12:45:32.931Z,295
2018-08-24T12:46:33.180Z,295
2018-08-24T12:47:33.178Z,310
2018-08-24T12:48:33.187Z,320
2018-08-24T12:49:33.197Z,320
2018-08-24T12:50:32.680Z,325
2018-08-24T12:51:32.687Z,330
2018-08-24T12:52:33.188Z,345
2018-08-24T12:53:32.686Z,345
2018-08-24T12:54:32.686Z,340
2018-08-24T12:55:33.214Z,340
2018-08-24T12:56:32.697Z,345
2018-08-24T12:57:33.203Z,360
2018-08-24T12:58:33.206Z,365
2018-08-24T12:59:32.951Z,375
2018-08-24T13:00:32.698Z,370
2018-08-24T13:01:33.212Z,365
2018-08-24T13:02:32.962Z,375
2018-08-24T13:03:32.958Z,380
2018-08-24T13:04:32.977Z,390
2018-08-24T13:05:33.221Z,395
2018-08-24T13:06:33.208Z,400
2018-08-24T13:07:33.206Z,410
2018-08-24T13:08:33.042Z,415
2018-08-24T13:09:32.959Z,425
2018-08-24T13:10:33.226Z,430
2018-08-24T13:11:33.224Z,435
2018-08-24T13:12:33.216Z,430
2018-08-24T13:13:32.970Z,420
2018-08-24T13:14:33.225Z,410
2018-08-24T13:15:33.441Z,420
2018-08-24T13:16:33.233Z,445
2018-08-24T13:17:32.986Z,465
2018-08-24T13:18:33.236Z,485
2018-08-24T13:19:32.984Z,490
2018-08-24T13:20:32.982Z,490
2018-08-24T13:21:33.553Z,480
2018-08-24T13:22:33.241Z,470
2018-08-24T13:23:33.237Z,450
2018-08-24T13:24:33.292Z,450
2018-08-24T13:25:33.244Z,460
2018-08-24T13:26:33.244Z,460
2018-08-24T13:27:33.373Z,470
2018-08-24T13:28:32.746Z,460
2018-08-24T13:29:33.260Z,455
2018-08-24T13:30:33.262Z,450
2018-08-24T13:31:32.757Z,440
2018-08-24T13:32:32.755Z,445
2018-08-24T13:33:33.014Z,440
2018-08-24T13:34:33.293Z,435
2018-08-24T13:35:33.025Z,430
2018-08-24T13:36:32.764Z,405
2018-08-24T13:37:33.018Z,395
2018-08-24T13:38:33.526Z,385
2018-08-24T13:39:33.026Z,375
2018-08-24T13:40:32.779Z,365
2018-08-24T13:41:33.282Z,365
2018-08-24T13:42:33.281Z,370
2018-08-24T13:43:33.286Z,395
2018-08-24T13:44:33.054Z,400
2018-08-24T13:45:33.041Z,385
2018-08-24T13:46:32.539Z,385
2018-08-24T13:47:33.647Z,385
2018-08-24T13:48:33.301Z,385
2018-08-24T13:49:33.311Z,395
2018-08-24T13:50:32.551Z,395
2018-08-24T13:51:33.321Z,395
2018-08-24T13:52:33.309Z,415
2018-08-24T13:53:33.486Z,460
2018-08-24T13:54:32.817Z,500
2018-08-24T13:55:32.814Z,495
2018-08-24T13:56:33.072Z,475
2018-08-24T13:57:33.074Z,490
2018-08-24T13:58:33.327Z,520
2018-08-24T13:59:33.772Z,525
2018-08-24T14:00:33.345Z,500
2018-08-24T14:01:33.333Z,500
2018-08-24T14:02:33.336Z,505
2018-08-24T14:03:33.086Z,470
2018-08-24T14:04:33.345Z,455